createdAt,value
2018-05-13T00:00:13.420Z,15.14
2018-05-13T00:01:18.962Z,15.19
2018-05-13T00:02:24.497Z,15.14
2018-05-13T00:03:30.042Z,15.20
2018-05-13T00:04:35.576Z,15.11
2018-05-13T00:05:41.116Z,15.23
2018-05-13T00:06:46.661Z,15.25
2018-05-13T00:07:52.200Z,15.14
2018-05-13T00:08:57.736Z,15.21
2018-05-13T00:10:03.281Z,15.20
2018-05-13T00:11:08.815Z,15.21
2018-05-13T00:12:14.357Z,15.20
2018-05-13T00:13:19.900Z,15.21
2018-05-13T00:14:25.458Z,15.20
2018-05-13T00:15:30.989Z,15.20
2018-05-13T00:16:36.516Z,15.27
2018-05-13T00:17:42.058Z,15.21
2018-05-13T00:18:47.606Z,15.27
2018-05-13T00:19:53.131Z,15.25
2018-05-13T00:20:58.672Z,15.28
2018-05-13T00:22:04.211Z,15.29
2018-05-13T00:23:09.751Z,15.29
2018-05-13T00:24:15.294Z,15.27
2018-05-13T00:25:20.834Z,15.23
2018-05-13T00:26:26.375Z,15.28
2018-05-13T00:27:31.916Z,15.25
2018-05-13T00:28:37.451Z,15.25
2018-05-13T00:29:42.990Z,15.27
2018-05-13T00:30:48.532Z,15.29
2018-05-13T00:31:54.074Z,15.25
2018-05-13T00:32:59.610Z,15.32
2018-05-13T00:34:05.150Z,15.28
2018-05-13T00:35:10.692Z,15.27
2018-05-13T00:36:16.227Z,15.29
2018-05-13T00:37:21.766Z,15.25
2018-05-13T00:38:27.313Z,15.31
2018-05-13T00:39:32.848Z,15.31
2018-05-13T00:40:38.384Z,15.38
2018-05-13T00:41:43.925Z,15.28
2018-05-13T00:42:49.466Z,15.27
2018-05-13T00:43:55.019Z,15.38
2018-05-13T00:45:00.550Z,15.31
2018-05-13T00:46:06.099Z,15.34
2018-05-13T00:47:11.627Z,15.35
2018-05-13T00:48:17.163Z,15.34
2018-05-13T00:49:22.705Z,15.36
2018-05-13T00:50:28.244Z,15.34
2018-05-13T00:51:33.787Z,15.34
2018-05-13T00:52:39.322Z,15.35
2018-05-13T00:53:44.864Z,15.34
2018-05-13T00:54:50.401Z,15.38
2018-05-13T00:55:55.942Z,15.38
2018-05-13T00:57:01.486Z,15.35
2018-05-13T00:58:07.019Z,15.38
2018-05-13T00:59:12.563Z,15.32
2018-05-13T01:00:18.103Z,15.34
2018-05-13T01:01:23.640Z,15.29
2018-05-13T01:02:29.184Z,15.39
2018-05-13T01:03:34.718Z,15.35
2018-05-13T01:04:40.266Z,15.34
2018-05-13T01:05:45.804Z,15.36
2018-05-13T01:06:51.340Z,15.34
2018-05-13T01:07:56.875Z,15.29
2018-05-13T01:09:02.417Z,15.38
2018-05-13T01:10:07.956Z,15.32
2018-05-13T01:11:13.493Z,15.36
2018-05-13T01:12:19.040Z,15.39
2018-05-13T01:13:24.579Z,15.38
2018-05-13T01:14:30.119Z,15.34
2018-05-13T01:15:35.654Z,15.34
2018-05-13T01:16:41.201Z,15.28
2018-05-13T01:17:46.794Z,15.36
2018-05-13T01:18:52.278Z,15.35
2018-05-13T01:19:57.811Z,15.43
2018-05-13T01:21:03.355Z,15.38
2018-05-13T01:22:08.899Z,15.43
2018-05-13T01:23:14.434Z,15.32
2018-05-13T01:24:19.973Z,15.29
2018-05-13T01:25:25.513Z,15.28
2018-05-13T01:26:31.056Z,15.36
2018-05-13T01:27:36.596Z,15.46
2018-05-13T01:28:42.131Z,15.31
2018-05-13T01:29:47.673Z,15.34
2018-05-13T01:30:53.208Z,15.31
2018-05-13T01:31:58.754Z,15.32
2018-05-13T01:33:04.287Z,15.34
2018-05-13T01:34:09.831Z,15.31
2018-05-13T01:35:15.372Z,15.32
2018-05-13T01:36:20.913Z,15.35
2018-05-13T01:37:26.453Z,15.29
2018-05-13T01:38:31.992Z,15.32
2018-05-13T01:39:37.531Z,15.29
2018-05-13T01:40:43.077Z,15.23
2018-05-13T01:41:48.605Z,15.21
2018-05-13T01:42:54.150Z,15.21
2018-05-13T01:43:59.685Z,15.21
2018-05-13T01:45:05.232Z,15.11
2018-05-13T01:46:10.764Z,15.14
2018-05-13T01:47:16.302Z,15.16
2018-05-13T01:48:21.851Z,15.09
2018-05-13T01:49:27.385Z,15.10
2018-05-13T01:50:32.928Z,15.13
2018-05-13T01:51:38.465Z,15.07
2018-05-13T01:52:44.003Z,14.96
2018-05-13T01:53:49.543Z,15.02
2018-05-13T01:54:55.084Z,14.94
2018-05-13T01:56:00.625Z,15.01
2018-05-13T01:57:06.169Z,14.94
2018-05-13T01:58:11.711Z,14.89
2018-05-13T01:59:17.250Z,14.92
2018-05-13T02:00:22.784Z,14.88
2018-05-13T02:01:28.321Z,14.89
2018-05-13T02:02:33.862Z,14.78
2018-05-13T02:03:39.406Z,14.80
2018-05-13T02:04:44.944Z,14.77
2018-05-13T02:05:50.482Z,14.81
2018-05-13T02:06:56.024Z,14.78
2018-05-13T02:08:01.563Z,14.75
2018-05-13T02:09:07.105Z,14.70
2018-05-13T02:10:12.638Z,14.64
2018-05-13T02:11:18.179Z,14.61
2018-05-13T02:12:23.724Z,14.65
2018-05-13T02:13:29.261Z,14.58
2018-05-13T02:14:34.801Z,14.55
2018-05-13T02:15:40.339Z,14.52
2018-05-13T02:16:45.878Z,14.52
2018-05-13T02:17:51.416Z,14.54
2018-05-13T02:18:56.958Z,14.57
2018-05-13T02:20:02.495Z,14.52
2018-05-13T02:21:08.036Z,14.51
2018-05-13T02:22:13.577Z,14.45
2018-05-13T02:23:19.120Z,14.37
2018-05-13T02:24:24.655Z,14.43
2018-05-13T02:25:30.198Z,14.42
2018-05-13T02:26:35.735Z,14.33
2018-05-13T02:27:41.278Z,14.39
2018-05-13T02:28:46.816Z,14.35
2018-05-13T02:29:52.355Z,14.36
2018-05-13T02:30:57.897Z,14.28
2018-05-13T02:32:03.435Z,14.25
2018-05-13T02:33:08.971Z,14.29
2018-05-13T02:34:14.508Z,14.32
2018-05-13T02:35:20.049Z,14.25
2018-05-13T02:36:25.593Z,14.35
2018-05-13T02:37:31.133Z,14.28
2018-05-13T02:38:36.668Z,14.29
2018-05-13T02:39:42.208Z,14.21
2018-05-13T02:40:47.748Z,14.22
2018-05-13T02:41:53.286Z,14.21
2018-05-13T02:42:58.830Z,14.20
2018-05-13T02:44:04.371Z,14.07
2018-05-13T02:45:09.901Z,14.09
2018-05-13T02:46:15.445Z,14.07
2018-05-13T02:47:20.985Z,14.07
2018-05-13T02:48:26.525Z,14.07
2018-05-13T02:49:32.058Z,14.07
2018-05-13T02:50:37.602Z,13.97
2018-05-13T02:51:43.151Z,13.97
2018-05-13T02:52:48.682Z,13.95
2018-05-13T02:53:54.217Z,13.96
2018-05-13T02:54:59.760Z,13.84
2018-05-13T02:56:05.296Z,13.89
2018-05-13T02:57:10.841Z,13.88
2018-05-13T02:58:16.378Z,13.82
2018-05-13T02:59:21.921Z,13.87
2018-05-13T03:00:27.455Z,13.73
2018-05-13T03:01:32.998Z,13.73
2018-05-13T03:02:38.538Z,13.73
2018-05-13T03:03:44.076Z,13.71
2018-05-13T03:04:49.612Z,13.66
2018-05-13T03:05:55.154Z,13.66
2018-05-13T03:07:00.696Z,13.63
2018-05-13T03:08:06.229Z,13.60
2018-05-13T03:09:11.772Z,13.59
2018-05-13T03:10:17.313Z,13.64
2018-05-13T03:11:22.851Z,13.67
2018-05-13T03:12:28.386Z,13.69
2018-05-13T03:13:33.924Z,13.63
2018-05-13T03:14:39.467Z,13.70
2018-05-13T03:15:45.041Z,13.62
2018-05-13T03:16:50.550Z,13.67
2018-05-13T03:17:56.089Z,13.69
2018-05-13T03:19:01.636Z,13.67
2018-05-13T03:20:07.167Z,13.69
2018-05-13T03:21:12.704Z,13.75
2018-05-13T03:22:18.239Z,13.73
2018-05-13T03:23:23.782Z,13.75
2018-05-13T03:24:29.318Z,13.71
2018-05-13T03:25:34.857Z,13.77
2018-05-13T03:26:40.399Z,13.70
2018-05-13T03:27:45.943Z,13.71
2018-05-13T03:28:51.473Z,13.70
2018-05-13T03:29:57.014Z,13.73
2018-05-13T03:31:02.556Z,13.75
2018-05-13T03:32:08.102Z,13.75
2018-05-13T03:33:13.631Z,13.77
2018-05-13T03:34:19.177Z,13.81
2018-05-13T03:35:24.708Z,13.73
2018-05-13T03:36:30.249Z,13.75
2018-05-13T03:37:35.799Z,13.71
2018-05-13T03:38:41.328Z,13.73
2018-05-13T03:39:46.867Z,13.75
2018-05-13T03:40:52.412Z,13.71
2018-05-13T03:41:57.953Z,13.73
2018-05-13T03:43:03.489Z,13.77
2018-05-13T03:44:09.025Z,13.70
2018-05-13T03:45:14.566Z,13.70
2018-05-13T03:46:20.103Z,13.70
2018-05-13T03:47:25.647Z,13.78
2018-05-13T03:48:31.179Z,13.69
2018-05-13T03:49:36.722Z,13.73
2018-05-13T03:50:42.262Z,13.69
2018-05-13T03:51:47.797Z,13.69
2018-05-13T03:52:53.344Z,13.71
2018-05-13T03:53:58.890Z,13.71
2018-05-13T03:55:04.417Z,13.85
2018-05-13T03:56:09.955Z,13.91
2018-05-13T03:57:15.495Z,13.95
2018-05-13T03:58:21.039Z,13.92
2018-05-13T03:59:26.571Z,13.97
2018-05-13T04:00:32.113Z,13.96
2018-05-13T04:01:37.659Z,13.92
2018-05-13T04:02:43.193Z,13.88
2018-05-13T04:03:48.748Z,13.85
2018-05-13T04:04:54.272Z,13.89
2018-05-13T04:05:59.813Z,13.92
2018-05-13T04:07:05.347Z,13.97
2018-05-13T04:08:10.887Z,14.12
2018-05-13T04:09:16.429Z,14.27
2018-05-13T04:10:21.964Z,14.40
2018-05-13T04:11:27.511Z,14.54
2018-05-13T04:12:33.042Z,14.68
2018-05-13T04:13:38.580Z,14.72
2018-05-13T04:14:44.119Z,14.78
2018-05-13T04:15:49.657Z,14.88
2018-05-13T04:16:55.200Z,14.88
2018-05-13T04:18:00.741Z,14.89
2018-05-13T04:19:06.310Z,14.92
2018-05-13T04:20:11.826Z,14.88
2018-05-13T04:21:17.363Z,14.88
2018-05-13T04:22:22.894Z,14.88
2018-05-13T04:23:28.442Z,14.96
2018-05-13T04:24:33.976Z,14.94
2018-05-13T04:25:39.517Z,14.84
2018-05-13T04:26:45.056Z,14.89
2018-05-13T04:27:50.594Z,14.91
2018-05-13T04:28:56.135Z,14.84
2018-05-13T04:30:01.676Z,14.96
2018-05-13T04:31:07.214Z,15.01
2018-05-13T04:32:12.751Z,15.07
2018-05-13T04:33:18.291Z,15.07
2018-05-13T04:34:23.833Z,15.13
2018-05-13T04:35:29.365Z,15.17
2018-05-13T04:36:34.909Z,15.09
2018-05-13T04:37:40.453Z,15.14
2018-05-13T04:38:45.992Z,15.21
2018-05-13T04:39:51.525Z,15.23
2018-05-13T04:40:57.068Z,15.25
2018-05-13T04:42:02.609Z,15.27
2018-05-13T04:43:08.142Z,15.27
2018-05-13T04:44:13.689Z,15.27
2018-05-13T04:45:19.222Z,15.34
2018-05-13T04:46:24.761Z,15.38
2018-05-13T04:47:30.305Z,15.35
2018-05-13T04:48:35.846Z,15.47
2018-05-13T04:49:41.385Z,15.53
2018-05-13T04:50:46.926Z,15.47
2018-05-13T04:51:52.463Z,15.65
2018-05-13T04:52:58.004Z,15.69
2018-05-13T04:54:03.546Z,15.69
2018-05-13T04:55:09.086Z,15.72
2018-05-13T04:56:14.621Z,15.71
2018-05-13T04:57:20.166Z,15.76
2018-05-13T04:58:25.703Z,15.87
2018-05-13T04:59:31.239Z,15.90
2018-05-13T05:00:36.785Z,15.94
2018-05-13T05:01:42.316Z,15.89
2018-05-13T05:02:47.863Z,15.92
2018-05-13T05:03:53.400Z,15.86
2018-05-13T05:04:58.944Z,16.02
2018-05-13T05:06:04.480Z,16.01
2018-05-13T05:07:10.020Z,16.11
2018-05-13T05:08:15.557Z,16.12
2018-05-13T05:09:21.103Z,16.24
2018-05-13T05:10:26.638Z,16.33
2018-05-13T05:11:32.185Z,16.41
2018-05-13T05:12:37.724Z,16.42
2018-05-13T05:13:43.263Z,16.43
2018-05-13T05:14:48.807Z,16.52
2018-05-13T05:15:54.342Z,16.53
2018-05-13T05:16:59.892Z,16.67
2018-05-13T05:18:05.429Z,16.81
2018-05-13T05:19:10.965Z,16.83
2018-05-13T05:20:16.503Z,16.78
2018-05-13T05:21:22.050Z,16.82
2018-05-13T05:22:27.587Z,16.91
2018-05-13T05:23:33.124Z,16.94
2018-05-13T05:24:38.668Z,16.97
2018-05-13T05:25:44.205Z,17.03
2018-05-13T05:26:49.749Z,16.98
2018-05-13T05:27:55.309Z,17.01
2018-05-13T05:29:00.827Z,16.94
2018-05-13T05:30:06.367Z,16.93
2018-05-13T05:31:11.912Z,16.96
2018-05-13T05:32:17.455Z,16.91
2018-05-13T05:33:22.989Z,17.07
2018-05-13T05:34:28.535Z,17.04
2018-05-13T05:35:34.075Z,17.14
2018-05-13T05:36:39.610Z,17.18
2018-05-13T05:37:45.155Z,17.23
2018-05-13T05:38:50.690Z,17.40
2018-05-13T05:39:56.241Z,17.34
2018-05-13T05:41:01.778Z,17.33
2018-05-13T05:42:07.318Z,17.49
2018-05-13T05:43:12.859Z,17.48
2018-05-13T05:44:18.408Z,17.46
2018-05-13T05:45:23.947Z,17.46
2018-05-13T05:46:29.482Z,17.43
2018-05-13T05:47:35.024Z,17.44
2018-05-13T05:48:40.565Z,17.49
2018-05-13T05:49:46.101Z,17.56
2018-05-13T05:50:51.649Z,17.59
2018-05-13T05:51:57.186Z,17.62
2018-05-13T05:53:02.732Z,17.66
2018-05-13T05:54:08.274Z,17.68
2018-05-13T05:55:13.808Z,17.66
2018-05-13T05:56:19.351Z,17.66
2018-05-13T05:57:24.967Z,17.79
2018-05-13T05:58:30.436Z,17.82
2018-05-13T05:59:35.986Z,17.87
2018-05-13T06:00:41.516Z,17.79
2018-05-13T06:01:47.058Z,17.79
2018-05-13T06:02:52.598Z,17.66
2018-05-13T06:03:58.140Z,17.79
2018-05-13T06:05:03.681Z,17.79
2018-05-13T06:06:09.224Z,17.79
2018-05-13T06:07:14.760Z,17.97
2018-05-13T06:08:20.303Z,18.10
2018-05-13T06:09:25.846Z,18.10
2018-05-13T06:10:31.390Z,18.21
2018-05-13T06:11:36.932Z,18.26
2018-05-13T06:12:42.466Z,18.37
2018-05-13T06:13:48.009Z,18.42
2018-05-13T06:14:53.551Z,18.45
2018-05-13T06:15:59.174Z,18.55
2018-05-13T06:17:04.637Z,18.52
2018-05-13T06:18:10.178Z,18.52
2018-05-13T06:19:15.716Z,18.58
2018-05-13T06:20:21.263Z,18.58
2018-05-13T06:21:26.805Z,18.75
2018-05-13T06:22:32.340Z,18.85
2018-05-13T06:23:37.886Z,18.90
2018-05-13T06:24:43.429Z,18.92
2018-05-13T06:25:48.966Z,18.95
2018-05-13T06:26:54.507Z,19.14
2018-05-13T06:28:00.053Z,19.14
2018-05-13T06:29:05.602Z,19.08
2018-05-13T06:30:11.140Z,19.21
2018-05-13T06:31:16.678Z,19.14
2018-05-13T06:32:22.221Z,19.31
2018-05-13T06:33:27.763Z,19.29
2018-05-13T06:34:33.305Z,19.28
2018-05-13T06:35:38.849Z,19.10
2018-05-13T06:36:44.393Z,19.11
2018-05-13T06:37:49.930Z,19.08
2018-05-13T06:38:55.469Z,19.19
2018-05-13T06:40:01.015Z,19.25
2018-05-13T06:41:06.560Z,19.28
2018-05-13T06:42:12.102Z,19.32
2018-05-13T06:43:17.644Z,19.43
2018-05-13T06:44:23.187Z,19.54
2018-05-13T06:45:28.720Z,19.50
2018-05-13T06:46:34.280Z,19.48
2018-05-13T06:47:39.810Z,19.65
2018-05-13T06:48:45.348Z,19.86
2018-05-13T06:49:50.890Z,19.86
2018-05-13T06:50:56.516Z,19.83
2018-05-13T06:52:01.987Z,19.88
2018-05-13T06:53:07.518Z,19.94
2018-05-13T06:54:13.068Z,19.83
2018-05-13T06:55:18.603Z,19.96
2018-05-13T06:56:24.148Z,20.02
2018-05-13T06:57:29.694Z,20.05
2018-05-13T06:58:35.234Z,20.21
2018-05-13T06:59:40.778Z,20.32
2018-05-13T07:00:46.315Z,20.42
2018-05-13T07:01:51.858Z,20.47
2018-05-13T07:02:57.398Z,20.38
2018-05-13T07:04:02.942Z,20.18
2018-05-13T07:05:08.492Z,20.11
2018-05-13T07:06:14.033Z,19.92
2018-05-13T07:07:19.572Z,19.92
2018-05-13T07:08:25.115Z,19.98
2018-05-13T07:09:30.656Z,19.94
2018-05-13T07:10:36.199Z,19.95
2018-05-13T07:11:41.746Z,19.94
2018-05-13T07:12:47.296Z,19.94
2018-05-13T07:13:52.823Z,19.88
2018-05-13T07:14:58.374Z,19.95
2018-05-13T07:16:03.918Z,19.99
2018-05-13T07:17:09.462Z,20.01
2018-05-13T07:18:15.003Z,20.14
2018-05-13T07:19:20.546Z,20.08
2018-05-13T07:20:26.094Z,20.21
2018-05-13T07:21:31.626Z,20.24
2018-05-13T07:22:37.177Z,20.32
2018-05-13T07:23:42.712Z,20.39
2018-05-13T07:24:48.260Z,20.35
2018-05-13T07:25:53.803Z,20.42
2018-05-13T07:26:59.340Z,20.42
2018-05-13T07:28:04.889Z,20.67
2018-05-13T07:29:10.430Z,20.80
2018-05-13T07:30:15.971Z,20.97
2018-05-13T07:31:21.511Z,21.09
2018-05-13T07:32:27.059Z,21.28
2018-05-13T07:33:32.606Z,21.44
2018-05-13T07:34:38.145Z,21.50
2018-05-13T07:35:43.689Z,21.53
2018-05-13T07:36:49.229Z,21.58
2018-05-13T07:37:54.776Z,21.58
2018-05-13T07:39:00.318Z,21.67
2018-05-13T07:40:05.858Z,21.71
2018-05-13T07:41:11.406Z,21.92
2018-05-13T07:42:16.946Z,21.82
2018-05-13T07:43:22.598Z,21.79
2018-05-13T07:44:28.030Z,21.84
2018-05-13T07:45:33.574Z,21.99
2018-05-13T07:46:39.119Z,21.88
2018-05-13T07:47:44.669Z,22.03
2018-05-13T07:48:50.213Z,21.98
2018-05-13T07:49:55.757Z,21.83
2018-05-13T07:51:01.341Z,21.80
2018-05-13T07:52:06.841Z,22.03
2018-05-13T07:53:12.383Z,22.17
2018-05-13T07:54:17.929Z,22.18
2018-05-13T07:55:23.469Z,22.12
2018-05-13T07:56:29.021Z,22.20
2018-05-13T07:57:34.556Z,22.30
2018-05-13T07:58:40.103Z,22.45
2018-05-13T07:59:45.650Z,22.46
2018-05-13T08:00:51.191Z,22.42
2018-05-13T08:01:56.735Z,22.46
2018-05-13T08:03:02.283Z,22.52
2018-05-13T08:04:07.830Z,22.60
2018-05-13T08:05:13.366Z,22.64
2018-05-13T08:06:18.913Z,22.76
2018-05-13T08:07:24.456Z,22.86
2018-05-13T08:08:30.003Z,22.88
2018-05-13T08:09:35.544Z,22.95
2018-05-13T08:10:41.090Z,23.00
2018-05-13T08:11:46.638Z,22.95
2018-05-13T08:12:52.240Z,22.95
2018-05-13T08:13:57.767Z,23.09
2018-05-13T08:15:03.270Z,23.12
2018-05-13T08:16:08.814Z,23.38
2018-05-13T08:17:14.366Z,23.33
2018-05-13T08:18:19.901Z,23.27
2018-05-13T08:19:25.462Z,23.31
2018-05-13T08:20:31.026Z,23.33
2018-05-13T08:21:36.532Z,23.39
2018-05-13T08:22:42.091Z,23.50
2018-05-13T08:23:47.627Z,23.48
2018-05-13T08:24:53.175Z,23.68
2018-05-13T08:25:58.715Z,23.57
2018-05-13T08:27:04.259Z,23.60
2018-05-13T08:28:09.807Z,23.61
2018-05-13T08:29:15.356Z,23.43
2018-05-13T08:30:20.904Z,23.33
2018-05-13T08:31:26.519Z,23.33
2018-05-13T08:32:31.988Z,23.38
2018-05-13T08:33:37.527Z,23.40
2018-05-13T08:34:43.079Z,23.65
2018-05-13T08:35:48.620Z,23.60
2018-05-13T08:36:54.162Z,23.70
2018-05-13T08:37:59.712Z,23.78
2018-05-13T08:39:05.259Z,23.73
2018-05-13T08:40:10.799Z,23.69
2018-05-13T08:41:16.341Z,23.61
2018-05-13T08:42:21.890Z,23.60
2018-05-13T08:43:27.439Z,23.73
2018-05-13T08:44:32.978Z,23.88
2018-05-13T08:45:38.529Z,23.85
2018-05-13T08:46:44.077Z,23.95
2018-05-13T08:47:49.617Z,24.02
2018-05-13T08:48:55.163Z,24.05
2018-05-13T08:50:00.718Z,24.08
2018-05-13T08:51:06.256Z,24.16
2018-05-13T08:52:11.805Z,24.18
2018-05-13T08:53:17.345Z,24.24
2018-05-13T08:54:22.894Z,24.35
2018-05-13T08:55:28.435Z,24.34
2018-05-13T08:56:33.984Z,24.37
2018-05-13T08:57:39.529Z,24.52
2018-05-13T08:58:45.074Z,24.52
2018-05-13T08:59:50.618Z,24.60
2018-05-13T09:00:56.165Z,24.65
2018-05-13T09:02:01.713Z,24.53
2018-05-13T09:03:07.259Z,24.43
2018-05-13T09:04:12.803Z,24.37
2018-05-13T09:05:18.350Z,24.34
2018-05-13T09:06:23.891Z,24.53
2018-05-13T09:07:29.440Z,24.49
2018-05-13T09:08:35.083Z,24.68
2018-05-13T09:09:40.531Z,24.81
2018-05-13T09:10:46.082Z,24.90
2018-05-13T09:11:51.619Z,24.93
2018-05-13T09:12:57.166Z,24.83
2018-05-13T09:14:02.747Z,24.83
2018-05-13T09:15:08.260Z,24.76
2018-05-13T09:16:13.801Z,24.84
2018-05-13T09:17:19.357Z,24.98
2018-05-13T09:18:24.899Z,25.00
2018-05-13T09:19:30.444Z,25.14
2018-05-13T09:20:36.048Z,25.18
2018-05-13T09:21:41.542Z,25.03
2018-05-13T09:22:47.078Z,25.17
2018-05-13T09:23:52.626Z,25.17
2018-05-13T09:24:58.178Z,25.10
2018-05-13T09:26:03.724Z,25.18
2018-05-13T09:27:09.264Z,25.09
2018-05-13T09:28:14.817Z,24.99
2018-05-13T09:29:20.357Z,24.93
2018-05-13T09:30:25.902Z,24.95
2018-05-13T09:31:31.448Z,25.09
2018-05-13T09:32:36.995Z,25.06
2018-05-13T09:33:42.562Z,25.00
2018-05-13T09:36:19.705Z,25.09
2018-05-13T09:37:25.230Z,25.18
2018-05-13T09:39:23.691Z,25.43
2018-05-13T09:40:29.201Z,25.50
2018-05-13T09:42:27.733Z,25.58
2018-05-13T09:43:33.181Z,25.65
2018-05-13T09:45:31.676Z,25.65
2018-05-13T09:46:37.157Z,25.67
2018-05-13T09:48:35.592Z,25.62
2018-05-13T09:49:41.121Z,25.62
2018-05-13T09:51:40.046Z,25.42
2018-05-13T09:52:45.593Z,25.38
2018-05-13T09:53:51.142Z,25.18
2018-05-13T09:54:56.688Z,25.00
2018-05-13T09:56:02.226Z,24.99
2018-05-13T09:57:07.780Z,25.09
2018-05-13T09:58:13.322Z,25.15
2018-05-13T09:59:18.867Z,25.33
2018-05-13T10:00:24.417Z,25.40
2018-05-13T10:01:29.955Z,25.40
2018-05-13T10:02:35.519Z,25.50
2018-05-13T10:03:41.047Z,25.64
2018-05-13T10:04:46.592Z,25.62
2018-05-13T10:05:52.142Z,25.70
2018-05-13T10:06:57.684Z,25.57
2018-05-13T10:08:03.230Z,25.62
2018-05-13T10:09:08.780Z,25.80
2018-05-13T10:10:14.322Z,25.92
2018-05-13T10:11:19.867Z,26.02
2018-05-13T10:12:25.412Z,26.02
2018-05-13T10:13:30.962Z,25.80
2018-05-13T10:14:36.503Z,25.76
2018-05-13T10:15:42.055Z,25.77
2018-05-13T10:16:47.591Z,25.83
2018-05-13T10:17:53.145Z,25.77
2018-05-13T10:18:58.685Z,25.82
2018-05-13T10:20:04.229Z,25.85
2018-05-13T10:21:09.786Z,25.92
2018-05-13T10:22:15.331Z,25.91
2018-05-13T10:23:20.864Z,25.80
2018-05-13T10:24:26.426Z,25.70
2018-05-13T10:25:31.962Z,25.64
2018-05-13T10:26:37.507Z,25.73
2018-05-13T10:27:43.060Z,25.92
2018-05-13T10:28:48.599Z,25.92
2018-05-13T10:29:54.146Z,26.07
2018-05-13T10:30:59.694Z,26.17
2018-05-13T10:32:05.240Z,26.06
2018-05-13T10:33:10.799Z,26.09
2018-05-13T10:34:16.339Z,26.17
2018-05-13T10:35:21.879Z,26.29
2018-05-13T10:36:27.520Z,26.37
2018-05-13T10:37:32.973Z,26.51
2018-05-13T10:38:38.531Z,26.43
2018-05-13T10:39:44.076Z,26.48
2018-05-13T10:40:49.624Z,26.52
2018-05-13T10:41:55.193Z,26.35
2018-05-13T10:43:00.713Z,26.13
2018-05-13T10:44:06.258Z,26.26
2018-05-13T10:45:11.803Z,26.30
2018-05-13T10:46:17.360Z,26.37
2018-05-13T10:47:22.902Z,26.50
2018-05-13T10:48:28.449Z,26.44
2018-05-13T10:49:33.996Z,26.57
2018-05-13T10:50:39.540Z,26.52
2018-05-13T10:51:45.095Z,26.52
2018-05-13T10:52:50.632Z,26.40
2018-05-13T10:53:56.184Z,26.48
2018-05-13T10:55:01.727Z,26.37
2018-05-13T10:56:07.277Z,26.47
2018-05-13T10:57:12.820Z,26.62
2018-05-13T10:58:18.367Z,26.60
2018-05-13T10:59:23.916Z,26.60
2018-05-13T11:00:29.469Z,26.57
2018-05-13T11:01:35.020Z,26.54
2018-05-13T11:02:40.567Z,26.51
2018-05-13T11:03:46.112Z,26.50
2018-05-13T11:04:51.709Z,26.55
2018-05-13T11:05:57.204Z,26.52
2018-05-13T11:07:02.750Z,26.51
2018-05-13T11:08:08.301Z,26.54
2018-05-13T11:09:13.838Z,26.57
2018-05-13T11:10:19.454Z,26.58
2018-05-13T11:11:24.937Z,26.63
2018-05-13T11:12:30.488Z,26.63
2018-05-13T11:13:36.035Z,26.80
2018-05-13T11:14:41.579Z,26.75
2018-05-13T11:15:47.131Z,26.84
2018-05-13T11:16:52.678Z,26.84
2018-05-13T11:17:58.215Z,26.77
2018-05-13T11:19:03.767Z,26.77
2018-05-13T11:20:09.357Z,26.84
2018-05-13T11:21:14.867Z,26.81
2018-05-13T11:22:20.412Z,26.84
2018-05-13T11:23:25.961Z,26.84
2018-05-13T11:24:31.500Z,26.87
2018-05-13T11:25:37.047Z,26.81
2018-05-13T11:26:42.624Z,26.81
2018-05-13T11:27:48.141Z,26.81
2018-05-13T11:28:53.688Z,26.81
2018-05-13T11:29:59.238Z,26.89
2018-05-13T11:31:04.786Z,26.95
2018-05-13T11:32:10.338Z,26.95
2018-05-13T11:33:15.884Z,27.07
2018-05-13T11:34:21.443Z,27.07
2018-05-13T11:35:26.979Z,26.95
2018-05-13T11:36:32.525Z,27.03
2018-05-13T11:37:38.073Z,27.03
2018-05-13T11:38:43.615Z,27.06
2018-05-13T11:39:49.179Z,27.07
2018-05-13T11:40:54.714Z,27.10
2018-05-13T11:42:00.259Z,27.07
2018-05-13T11:43:05.809Z,26.99
2018-05-13T11:44:11.377Z,26.84
2018-05-13T11:45:16.920Z,26.92
2018-05-13T11:46:22.455Z,27.06
2018-05-13T11:47:28.002Z,27.17
2018-05-13T11:48:33.548Z,27.07
2018-05-13T11:49:39.092Z,27.14
2018-05-13T11:50:44.648Z,27.19
2018-05-13T11:51:50.184Z,27.09
2018-05-13T11:52:55.736Z,27.25
2018-05-13T11:54:01.343Z,27.14
2018-05-13T11:55:06.828Z,27.07
2018-05-13T11:56:12.377Z,27.04
2018-05-13T11:57:17.928Z,27.10
2018-05-13T11:58:23.467Z,27.27
2018-05-13T11:59:29.021Z,27.34
2018-05-13T12:00:34.564Z,27.46
2018-05-13T12:01:40.109Z,27.60
2018-05-13T12:02:45.666Z,27.77
2018-05-13T12:03:51.206Z,27.87
2018-05-13T12:04:56.759Z,27.79
2018-05-13T12:06:02.302Z,27.62
2018-05-13T12:07:07.858Z,27.65
2018-05-13T12:08:13.402Z,27.54
2018-05-13T12:09:18.947Z,27.44
2018-05-13T12:10:24.496Z,27.43
2018-05-13T12:11:30.043Z,27.54
2018-05-13T12:12:35.593Z,27.44
2018-05-13T12:13:41.134Z,27.31
2018-05-13T12:14:46.683Z,27.31
2018-05-13T12:15:52.232Z,27.18
2018-05-13T12:16:57.779Z,27.19
2018-05-13T12:18:03.333Z,27.24
2018-05-13T12:19:08.876Z,27.25
2018-05-13T12:20:14.420Z,27.39
2018-05-13T12:21:19.972Z,27.47
2018-05-13T12:22:25.519Z,27.69
2018-05-13T12:23:31.073Z,27.70
2018-05-13T12:24:36.615Z,27.78
2018-05-13T12:25:42.165Z,27.72
2018-05-13T12:26:47.711Z,27.67
2018-05-13T12:27:53.261Z,27.54
2018-05-13T12:28:58.814Z,27.47
2018-05-13T12:30:04.349Z,27.29
2018-05-13T12:31:09.905Z,27.19
2018-05-13T12:32:15.443Z,27.07
2018-05-13T12:33:20.991Z,27.03
2018-05-13T12:34:26.540Z,26.87
2018-05-13T12:35:32.091Z,26.82
2018-05-13T12:36:37.639Z,26.77
2018-05-13T12:37:43.186Z,26.80
2018-05-13T12:38:48.732Z,26.91
2018-05-13T12:39:54.284Z,27.06
2018-05-13T12:40:59.832Z,27.03
2018-05-13T12:42:05.382Z,27.24
2018-05-13T12:43:10.924Z,27.39
2018-05-13T12:44:16.470Z,27.43
2018-05-13T12:45:22.020Z,27.65
2018-05-13T12:46:27.568Z,27.77
2018-05-13T12:47:33.110Z,27.77
2018-05-13T12:48:38.660Z,27.82
2018-05-13T12:49:44.205Z,27.82
2018-05-13T12:50:49.759Z,27.93
2018-05-13T12:51:55.310Z,28.06
2018-05-13T12:53:00.852Z,28.06
2018-05-13T12:54:06.398Z,28.15
2018-05-13T12:55:11.948Z,28.06
2018-05-13T12:56:17.502Z,28.12
2018-05-13T12:57:23.038Z,28.21
2018-05-13T12:58:28.622Z,28.25
2018-05-13T12:59:34.140Z,28.21
2018-05-13T13:00:39.682Z,28.06
2018-05-13T13:01:45.234Z,28.00
2018-05-13T13:02:50.774Z,27.93
2018-05-13T13:03:56.326Z,27.96
2018-05-13T13:05:01.873Z,28.09
2018-05-13T13:06:07.428Z,28.12
2018-05-13T13:07:12.970Z,28.15
2018-05-13T13:08:18.521Z,28.24
2018-05-13T13:09:24.086Z,28.33
2018-05-13T13:10:29.619Z,28.22
2018-05-13T13:11:35.165Z,28.09
2018-05-13T13:12:40.712Z,28.14
2018-05-13T13:13:46.265Z,28.19
2018-05-13T13:14:51.805Z,28.07
2018-05-13T13:15:57.350Z,27.74
2018-05-13T13:17:02.905Z,27.57
2018-05-13T13:18:08.455Z,27.40
2018-05-13T13:19:14.002Z,27.34
2018-05-13T13:20:19.551Z,27.31
2018-05-13T13:21:25.185Z,27.44
2018-05-13T13:22:30.640Z,27.66
2018-05-13T13:23:36.189Z,27.75
2018-05-13T13:24:41.735Z,27.66
2018-05-13T13:25:47.287Z,27.66
2018-05-13T13:26:52.837Z,27.65
2018-05-13T13:27:58.377Z,27.47
2018-05-13T13:29:03.932Z,27.46
2018-05-13T13:30:09.475Z,27.46
2018-05-13T13:31:15.023Z,27.47
2018-05-13T13:32:20.573Z,27.54
2018-05-13T13:33:26.117Z,27.67
2018-05-13T13:34:31.677Z,27.70
2018-05-13T13:35:37.219Z,27.70
2018-05-13T13:36:42.844Z,27.67
2018-05-13T13:37:48.307Z,27.66
2018-05-13T13:38:53.865Z,27.57
2018-05-13T13:39:59.408Z,27.46
2018-05-13T13:41:04.957Z,27.43
2018-05-13T13:42:10.497Z,27.43
2018-05-13T13:43:16.053Z,27.57
2018-05-13T13:44:21.602Z,27.67
2018-05-13T13:45:27.141Z,27.69
2018-05-13T13:46:32.726Z,27.66
2018-05-13T13:47:38.237Z,27.67
2018-05-13T13:48:43.790Z,27.82
2018-05-13T13:49:49.334Z,27.77
2018-05-13T13:50:54.883Z,27.69
2018-05-13T13:52:00.432Z,27.74
2018-05-13T13:53:05.977Z,27.69
2018-05-13T13:54:11.525Z,27.54
2018-05-13T13:55:17.070Z,27.34
2018-05-13T13:56:22.621Z,27.22
2018-05-13T13:57:28.213Z,27.12
2018-05-13T13:58:33.714Z,27.07
2018-05-13T13:59:39.271Z,27.14
2018-05-13T14:00:44.818Z,27.13
2018-05-13T14:01:50.362Z,27.21
2018-05-13T14:02:55.904Z,27.24
2018-05-13T14:04:01.455Z,27.36
2018-05-13T14:05:07.000Z,27.31
2018-05-13T14:06:12.553Z,27.43
2018-05-13T14:07:18.098Z,27.43
2018-05-13T14:08:23.641Z,27.39
2018-05-13T14:09:29.189Z,27.31